createdAt,value
2019-04-16T00:00:35.848Z,92.60
2019-04-16T00:03:12.133Z,92.70
2019-04-16T00:05:47.246Z,92.70
2019-04-16T00:08:30.383Z,92.50
2019-04-16T00:11:17.666Z,92.50
2019-04-16T00:13:52.119Z,91.80
2019-04-16T00:16:25.339Z,91.70
2019-04-16T00:19:04.380Z,91.70
2019-04-16T00:21:45.491Z,91.50
2019-04-16T00:24:19.641Z,91.70
2019-04-16T00:26:52.358Z,91.60
2019-04-16T00:29:24.010Z,91.70
2019-04-16T00:31:59.458Z,91.40
2019-04-16T00:34:31.816Z,91.80
2019-04-16T00:37:04.430Z,91.80
2019-04-16T00:39:37.874Z,91.60
2019-04-16T00:42:10.342Z,91.60
2019-04-16T00:44:43.412Z,91.40
2019-04-16T00:47:14.899Z,91.30
2019-04-16T00:49:47.978Z,91.90
2019-04-16T00:52:20.617Z,91.40
2019-04-16T00:54:53.376Z,91.50
2019-04-16T00:57:25.998Z,91.60
2019-04-16T01:00:03.312Z,91.40
2019-04-16T01:02:36.428Z,91.20
2019-04-16T01:05:07.817Z,91.80
2019-04-16T01:07:40.638Z,91.30
2019-04-16T01:10:26.835Z,91.10
2019-04-16T01:12:59.659Z,91.20
2019-04-16T01:15:35.183Z,91.50
2019-04-16T01:18:08.008Z,91.60
2019-04-16T01:20:44.608Z,91.40
2019-04-16T01:23:17.785Z,91.00
2019-04-16T01:25:55.361Z,91.20
2019-04-16T01:28:33.390Z,90.90
2019-04-16T01:31:12.700Z,91.70
2019-04-16T01:33:48.752Z,91.30
2019-04-16T01:36:22.949Z,91.40
2019-04-16T01:39:14.813Z,91.50
2019-04-16T01:41:34.998Z,91.50
2019-04-16T01:44:08.445Z,91.50
2019-04-16T01:46:42.217Z,91.00
2019-04-16T01:49:15.162Z,91.40
2019-04-16T01:51:48.564Z,91.70
2019-04-16T01:57:15.016Z,91.40
2019-04-16T01:59:46.358Z,90.90
2019-04-16T02:02:19.559Z,91.40
2019-04-16T02:04:53.448Z,91.40
2019-04-16T02:07:27.932Z,91.30
2019-04-16T02:10:00.763Z,91.60
2019-04-16T02:12:32.807Z,91.20
2019-04-16T02:15:08.515Z,91.40
2019-04-16T02:17:41.064Z,91.20
2019-04-16T02:20:16.126Z,91.40
2019-04-16T02:22:50.123Z,91.30
2019-04-16T02:25:23.005Z,91.40
2019-04-16T02:27:58.954Z,91.40
2019-04-16T02:30:39.443Z,91.40
2019-04-16T02:33:11.141Z,91.30
2019-04-16T02:35:43.746Z,91.60
2019-04-16T02:38:16.582Z,91.70
2019-04-16T02:40:53.771Z,91.50
2019-04-16T02:43:26.529Z,91.50
2019-04-16T02:45:59.061Z,91.60
2019-04-16T02:48:31.896Z,91.70
2019-04-16T02:51:12.019Z,91.70
2019-04-16T02:53:58.674Z,91.50
2019-04-16T02:56:51.471Z,91.40
2019-04-16T02:59:36.024Z,91.80
2019-04-16T03:02:12.557Z,91.90
2019-04-16T03:04:50.023Z,91.90
2019-04-16T03:07:22.986Z,91.80
2019-04-16T03:10:01.190Z,92.00
2019-04-16T03:12:28.363Z,91.90
2019-04-16T03:15:02.479Z,91.90
2019-04-16T03:17:42.717Z,91.90
2019-04-16T03:20:20.888Z,91.70
2019-04-16T03:22:54.866Z,91.70
2019-04-16T03:25:27.957Z,91.60
2019-04-16T03:28:00.431Z,91.20
2019-04-16T03:30:40.390Z,91.50
2019-04-16T03:33:12.381Z,91.00
2019-04-16T03:35:57.621Z,91.00
2019-04-16T03:38:29.839Z,90.70
2019-04-16T03:41:05.270Z,90.90
2019-04-16T03:43:37.712Z,90.80
2019-04-16T03:46:12.794Z,90.60
2019-04-16T03:48:44.145Z,90.60
2019-04-16T03:51:17.082Z,90.50
2019-04-16T03:53:50.361Z,90.40
2019-04-16T03:56:23.484Z,90.50
2019-04-16T03:58:56.769Z,90.40
2019-04-16T04:01:30.055Z,90.40
2019-04-16T04:04:02.490Z,89.80
2019-04-16T04:06:36.559Z,88.50
2019-04-16T04:09:09.570Z,88.80
2019-04-16T04:11:42.893Z,87.20
2019-04-16T04:14:22.379Z,87.60
2019-04-16T04:16:50.989Z,86.70
2019-04-16T04:19:26.715Z,87.60
2019-04-16T04:22:03.680Z,86.50
2019-04-16T04:24:36.756Z,85.50
2019-04-16T04:27:13.065Z,86.80
2019-04-16T04:29:46.318Z,87.60
2019-04-16T04:32:18.614Z,86.20
2019-04-16T04:34:52.726Z,86.10
2019-04-16T04:37:30.983Z,85.60
2019-04-16T04:40:06.578Z,85.80
2019-04-16T04:42:51.732Z,85.50
2019-04-16T04:45:27.451Z,85.40
2019-04-16T04:48:00.378Z,85.30
2019-04-16T04:50:35.419Z,86.80
2019-04-16T04:53:07.320Z,86.90
2019-04-16T04:55:39.902Z,86.30
2019-04-16T04:58:12.337Z,88.30
2019-04-16T05:00:45.122Z,86.80
2019-04-16T05:03:33.882Z,86.40
2019-04-16T05:06:20.010Z,87.00
2019-04-16T05:08:52.446Z,85.60
2019-04-16T05:11:25.207Z,87.90
2019-04-16T05:13:58.618Z,85.90
2019-04-16T05:16:31.516Z,87.70
2019-04-16T05:19:04.951Z,85.10
2019-04-16T05:21:38.390Z,85.60
2019-04-16T05:24:09.878Z,86.10
2019-04-16T05:26:42.964Z,86.30
2019-04-16T05:29:17.514Z,86.20
2019-04-16T05:31:50.177Z,86.20
2019-04-16T05:34:23.762Z,87.10
2019-04-16T05:36:58.737Z,85.30
2019-04-16T05:39:31.836Z,85.10
2019-04-16T05:42:04.529Z,86.20
2019-04-16T05:44:37.755Z,85.90
2019-04-16T05:47:16.767Z,81.50
2019-04-16T05:49:49.100Z,87.90
2019-04-16T05:52:22.541Z,86.20
2019-04-16T05:55:17.945Z,82.70
2019-04-16T05:57:50.443Z,83.70
2019-04-16T06:00:24.176Z,85.20
2019-04-16T06:02:57.000Z,85.00
2019-04-16T06:05:28.330Z,86.90
2019-04-16T06:08:12.089Z,80.60
2019-04-16T06:10:49.962Z,80.70
2019-04-16T06:13:29.610Z,82.60
2019-04-16T06:16:09.453Z,84.50
2019-04-16T06:19:04.043Z,80.50
2019-04-16T06:21:56.698Z,80.10
2019-04-16T06:24:46.623Z,85.30
2019-04-16T06:27:35.948Z,78.00
2019-04-16T06:30:26.516Z,76.60
2019-04-16T06:33:00.763Z,76.70
2019-04-16T06:35:47.787Z,74.00
2019-04-16T06:38:24.855Z,74.00
2019-04-16T06:41:07.906Z,72.40
2019-04-16T06:43:58.353Z,84.00
2019-04-16T06:46:57.097Z,82.20
2019-04-16T06:49:55.998Z,84.60
2019-04-16T06:52:38.676Z,78.30
2019-04-16T06:55:15.681Z,83.60
2019-04-16T06:58:05.759Z,79.10
2019-04-16T07:00:45.519Z,81.70
2019-04-16T07:03:34.410Z,76.30
2019-04-16T07:06:24.760Z,72.50
2019-04-16T07:09:11.008Z,82.10
2019-04-16T07:11:54.329Z,80.90
2019-04-16T07:14:20.140Z,74.20
2019-04-16T07:16:52.403Z,72.80
2019-04-16T07:19:26.369Z,78.80
2019-04-16T07:21:59.672Z,78.10
2019-04-16T07:24:37.395Z,76.90
2019-04-16T07:27:11.713Z,78.30
2019-04-16T07:29:51.527Z,79.50
2019-04-16T07:32:43.647Z,80.90
2019-04-16T07:35:17.331Z,76.90
2019-04-16T07:38:04.977Z,79.90
2019-04-16T07:40:52.075Z,81.90
2019-04-16T07:43:42.015Z,79.30
2019-04-16T07:46:34.574Z,78.70
2019-04-16T07:49:15.521Z,79.00
2019-04-16T07:51:49.980Z,80.60
2019-04-16T07:54:39.917Z,85.10
2019-04-16T07:57:13.275Z,76.60
2019-04-16T07:59:47.675Z,76.60
2019-04-16T08:02:22.309Z,76.60
2019-04-16T08:04:54.597Z,76.00
2019-04-16T08:07:27.096Z,80.40
2019-04-16T08:10:03.359Z,76.60
2019-04-16T08:12:42.087Z,78.70
2019-04-16T08:15:15.379Z,81.50
2019-04-16T08:17:47.941Z,79.30
2019-04-16T08:20:21.229Z,83.10
2019-04-16T08:22:55.988Z,84.70
2019-04-16T08:25:33.547Z,79.50
2019-04-16T08:28:06.903Z,78.10
2019-04-16T08:30:39.502Z,77.90
2019-04-16T08:33:12.292Z,81.60
2019-04-16T08:35:45.484Z,78.60
2019-04-16T08:38:19.112Z,80.10
2019-04-16T08:40:54.308Z,79.10
2019-04-16T08:43:31.708Z,82.50
2019-04-16T08:46:04.238Z,79.70
2019-04-16T08:48:36.799Z,85.50
2019-04-16T08:51:09.294Z,82.10
2019-04-16T08:53:43.805Z,85.00
2019-04-16T08:56:16.521Z,80.40
2019-04-16T08:58:49.314Z,84.70
2019-04-16T09:01:23.722Z,83.00
2019-04-16T09:04:01.535Z,83.10
2019-04-16T09:06:31.079Z,81.10
2019-04-16T09:09:12.422Z,83.30
2019-04-16T09:11:41.867Z,84.90
2019-04-16T09:14:16.831Z,84.50
2019-04-16T09:16:53.860Z,83.10
2019-04-16T09:19:28.484Z,85.00
2019-04-16T09:22:02.130Z,84.60
2019-04-16T09:24:51.475Z,82.40
2019-04-16T09:27:31.038Z,82.40
2019-04-16T09:30:16.372Z,83.90
2019-04-16T09:32:45.169Z,83.00
2019-04-16T09:35:25.657Z,85.30
2019-04-16T09:37:59.435Z,85.80
2019-04-16T09:40:49.545Z,85.90
2019-04-16T09:43:30.361Z,86.10
2019-04-16T09:46:10.088Z,81.10
2019-04-16T09:48:38.573Z,81.80
2019-04-16T09:51:11.378Z,84.50
2019-04-16T09:53:45.121Z,85.60
2019-04-16T09:56:30.551Z,84.80
2019-04-16T09:59:15.816Z,82.40
2019-04-16T10:01:47.651Z,82.60
2019-04-16T10:04:22.769Z,86.90
2019-04-16T10:06:55.987Z,81.30
2019-04-16T10:09:29.468Z,81.00
2019-04-16T10:12:01.308Z,82.80
2019-04-16T10:14:33.786Z,84.60
2019-04-16T10:17:08.638Z,81.10
2019-04-16T10:19:43.250Z,83.30
2019-04-16T10:22:17.320Z,84.90
2019-04-16T10:25:09.322Z,86.40
2019-04-16T10:27:43.337Z,85.70
2019-04-16T10:30:24.223Z,85.50
2019-04-16T10:32:56.952Z,86.30
2019-04-16T10:35:29.208Z,82.40
2019-04-16T10:38:03.045Z,84.10
2019-04-16T10:40:38.231Z,85.60
2019-04-16T10:43:18.356Z,87.10
2019-04-16T10:45:59.269Z,85.40
2019-04-16T10:48:39.227Z,82.30
2019-04-16T10:51:15.532Z,82.50
2019-04-16T10:53:51.826Z,82.60
2019-04-16T10:56:26.074Z,84.50
2019-04-16T10:59:05.292Z,87.00
2019-04-16T11:01:41.369Z,85.30
2019-04-16T11:04:27.604Z,85.30
2019-04-16T11:07:03.950Z,85.00
2019-04-16T11:09:39.248Z,84.60
2019-04-16T11:12:14.360Z,85.10
2019-04-16T11:14:47.827Z,85.50
2019-04-16T11:17:25.985Z,84.00
2019-04-16T11:20:04.454Z,84.80
2019-04-16T11:22:43.893Z,86.80
2019-04-16T11:25:21.303Z,87.30
2019-04-16T11:27:54.579Z,86.90
2019-04-16T11:30:34.143Z,87.20
2019-04-16T11:33:06.515Z,87.90
2019-04-16T11:35:39.298Z,86.90
2019-04-16T11:38:12.437Z,87.00
2019-04-16T11:40:47.629Z,87.90
2019-04-16T11:43:20.499Z,86.80
2019-04-16T11:45:54.356Z,88.70
2019-04-16T11:48:28.310Z,87.60
2019-04-16T11:51:01.228Z,87.20
2019-04-16T11:53:36.840Z,87.30
2019-04-16T11:56:10.439Z,88.20
2019-04-16T11:58:44.440Z,86.50
2019-04-16T12:01:18.643Z,88.40
2019-04-16T12:03:56.700Z,87.50
2019-04-16T12:06:50.811Z,88.40
2019-04-16T12:09:43.267Z,86.60
2019-04-16T12:12:20.157Z,87.90
2019-04-16T12:15:03.610Z,87.20
2019-04-16T12:17:50.806Z,87.20
2019-04-16T12:20:47.295Z,87.70
2019-04-16T12:23:30.970Z,89.30
2019-04-16T12:26:15.673Z,88.90
2019-04-16T12:28:56.746Z,86.70
2019-04-16T12:31:44.053Z,87.60
2019-04-16T12:34:18.709Z,87.60
2019-04-16T12:37:10.954Z,88.30
2019-04-16T12:39:48.200Z,87.50
2019-04-16T12:42:22.324Z,87.10
2019-04-16T12:44:56.128Z,88.50
2019-04-16T12:47:36.354Z,88.30
2019-04-16T12:50:10.719Z,88.00
2019-04-16T12:53:01.503Z,88.70
2019-04-16T12:55:39.434Z,88.00
2019-04-16T12:58:25.890Z,89.40
2019-04-16T13:01:02.676Z,89.40
2019-04-16T13:03:37.958Z,89.50
2019-04-16T13:06:30.765Z,88.50
2019-04-16T13:09:25.480Z,89.30
2019-04-16T13:12:14.694Z,89.30
2019-04-16T13:15:00.910Z,89.20
2019-04-16T13:17:34.447Z,89.70
2019-04-16T13:20:09.598Z,89.80
2019-04-16T13:23:01.001Z,89.90
2019-04-16T13:25:35.302Z,89.40
2019-04-16T13:28:08.959Z,89.20
2019-04-16T13:30:41.800Z,89.80
2019-04-16T13:33:14.427Z,89.40
2019-04-16T13:35:46.822Z,89.90
2019-04-16T13:38:20.570Z,89.80
2019-04-16T13:40:54.176Z,88.60
2019-04-16T13:43:28.297Z,89.90
2019-04-16T13:46:00.957Z,90.00
2019-04-16T13:48:37.674Z,90.00
2019-04-16T13:51:14.908Z,89.50
2019-04-16T13:54:03.493Z,89.40
2019-04-16T13:56:43.553Z,89.80
2019-04-16T13:59:17.547Z,89.90
2019-04-16T14:02:07.499Z,89.50
2019-04-16T14:04:40.294Z,90.00
2019-04-16T14:07:12.520Z,89.80
2019-04-16T14:09:46.068Z,89.70
2019-04-16T14:12:24.503Z,90.00
2019-04-16T14:14:52.604Z,88.90
2019-04-16T14:17:26.450Z,88.80
2019-04-16T14:19:59.257Z,88.90
2019-04-16T14:22:31.870Z,90.00
2019-04-16T14:25:06.382Z,88.80
2019-04-16T14:27:40.055Z,90.00
2019-04-16T14:30:17.883Z,89.40
2019-04-16T14:32:50.754Z,90.00
2019-04-16T14:35:33.505Z,90.00
2019-04-16T14:38:04.202Z,90.00
2019-04-16T14:40:39.638Z,90.00
2019-04-16T14:43:12.773Z,89.80
2019-04-16T14:45:59.245Z,89.80
2019-04-16T14:48:29.301Z,89.70
2019-04-16T14:51:03.398Z,89.80
2019-04-16T14:53:40.851Z,89.70
2019-04-16T14:56:15.791Z,89.60
2019-04-16T14:58:55.425Z,89.70
2019-04-16T15:01:48.213Z,89.90
2019-04-16T15:04:40.206Z,90.00
2019-04-16T15:07:22.782Z,90.10
2019-04-16T15:11:20.120Z,90.00
2019-04-16T15:13:25.933Z,90.00
2019-04-16T15:19:37.985Z,90.10
2019-04-16T15:22:20.906Z,90.00
2019-04-16T15:24:53.749Z,90.00
2019-04-16T15:27:44.762Z,90.00
2019-04-16T15:30:36.225Z,90.00
2019-04-16T15:33:26.874Z,90.00
2019-04-16T15:36:17.709Z,90.00
2019-04-16T15:39:02.902Z,90.00
2019-04-16T15:41:38.313Z,90.10
2019-04-16T15:45:18.909Z,90.10
2019-04-16T15:47:52.424Z,90.20
2019-04-16T15:54:52.407Z,90.40
2019-04-16T15:56:53.759Z,90.50
2019-04-16T15:59:49.671Z,90.50
2019-04-16T16:02:39.855Z,90.50
2019-04-16T16:05:17.583Z,90.60
2019-04-16T16:07:56.017Z,90.50
2019-04-16T16:10:29.048Z,90.60
2019-04-16T16:13:01.514Z,90.60
2019-04-16T16:15:34.183Z,90.60
2019-04-16T16:18:06.678Z,90.70
2019-04-16T16:20:38.978Z,90.70
2019-04-16T16:23:19.274Z,90.70
2019-04-16T16:26:03.952Z,90.50
2019-04-16T16:28:32.006Z,90.10
2019-04-16T16:31:04.595Z,90.10
2019-04-16T16:33:36.928Z,90.40
2019-04-16T16:36:09.318Z,90.70
2019-04-16T16:38:56.520Z,90.40
2019-04-16T16:41:37.456Z,90.50
2019-04-16T16:45:25.862Z,90.50
2019-04-16T16:47:17.979Z,90.30
2019-04-16T16:50:07.526Z,90.10
2019-04-16T16:52:43.496Z,90.20
2019-04-16T16:55:17.622Z,90.30
2019-04-16T16:57:52.341Z,90.70
2019-04-16T17:00:47.370Z,90.60
2019-04-16T17:03:36.463Z,90.60
2019-04-16T17:06:05.208Z,90.50
2019-04-16T17:08:40.884Z,90.50
2019-04-16T17:11:16.749Z,90.50
2019-04-16T17:13:47.152Z,90.60
2019-04-16T17:16:19.523Z,90.50
2019-04-16T17:18:52.178Z,90.50
2019-04-16T17:21:24.504Z,90.60
2019-04-16T17:23:57.177Z,90.50
2019-04-16T17:26:29.119Z,90.40
2019-04-16T17:29:01.432Z,90.40
2019-04-16T17:31:36.039Z,90.30
2019-04-16T17:34:08.768Z,90.30
2019-04-16T17:36:40.544Z,90.40
2019-04-16T17:39:14.374Z,90.40
2019-04-16T17:41:57.806Z,90.40
2019-04-16T17:44:35.861Z,90.40
2019-04-16T17:47:10.181Z,90.40
2019-04-16T17:49:44.005Z,90.30
2019-04-16T17:52:20.369Z,90.30
2019-04-16T17:54:57.452Z,90.20
2019-04-16T17:57:31.489Z,90.10
2019-04-16T18:00:21.399Z,90.10
2019-04-16T18:03:04.681Z,90.10
2019-04-16T18:05:41.897Z,90.50
2019-04-16T18:08:31.941Z,90.30
2019-04-16T18:11:12.416Z,90.50
2019-04-16T18:13:46.004Z,90.60
2019-04-16T18:16:20.549Z,90.70
2019-04-16T18:19:00.468Z,90.90
2019-04-16T18:21:34.147Z,91.10
2019-04-16T18:24:17.087Z,91.00
2019-04-16T18:26:50.816Z,90.90
2019-04-16T18:29:33.727Z,91.20
2019-04-16T18:32:16.909Z,91.10
2019-04-16T18:34:50.493Z,91.30
2019-04-16T18:37:39.748Z,91.40
2019-04-16T18:40:29.487Z,91.30
2019-04-16T18:43:06.958Z,91.20
2019-04-16T18:45:40.573Z,91.10
2019-04-16T18:48:14.522Z,91.10
2019-04-16T18:50:46.637Z,91.10
2019-04-16T18:53:19.284Z,91.20
2019-04-16T18:55:51.494Z,91.30
2019-04-16T18:58:25.232Z,91.30
2019-04-16T19:00:58.844Z,91.40
2019-04-16T19:03:31.463Z,91.40
2019-04-16T19:06:04.208Z,91.50
2019-04-16T19:08:42.132Z,91.40
2019-04-16T19:11:10.684Z,91.40
2019-04-16T19:13:43.349Z,91.20
2019-04-16T19:16:15.674Z,91.20
2019-04-16T19:18:48.004Z,91.20
2019-04-16T19:21:20.715Z,91.20
2019-04-16T19:23:53.789Z,91.20
2019-04-16T19:26:25.923Z,91.20
2019-04-16T19:28:58.204Z,91.20
2019-04-16T19:31:31.005Z,91.30
2019-04-16T19:34:08.369Z,91.30
2019-04-16T19:36:37.285Z,91.20
2019-04-16T19:39:13.790Z,91.60
2019-04-16T19:41:43.607Z,91.20
2019-04-16T19:44:16.375Z,91.30
2019-04-16T19:46:52.638Z,91.30
2019-04-16T19:49:23.409Z,91.40
2019-04-16T19:51:55.741Z,91.40
2019-04-16T19:54:31.491Z,91.30
2019-04-16T19:57:02.115Z,91.30
2019-04-16T19:59:34.452Z,91.30
2019-04-16T20:02:08.437Z,91.20
2019-04-16T20:04:41.365Z,91.10
2019-04-16T20:07:14.584Z,91.10
2019-04-16T20:09:47.239Z,91.10
2019-04-16T20:12:19.436Z,91.10
2019-04-16T20:14:52.156Z,91.10
2019-04-16T20:17:24.283Z,91.10
2019-04-16T20:20:01.042Z,91.00
2019-04-16T20:22:36.577Z,91.00
2019-04-16T20:25:09.764Z,91.00
2019-04-16T20:27:42.342Z,90.90
2019-04-16T20:30:15.966Z,90.90
2019-04-16T20:32:48.628Z,91.20
2019-04-16T20:35:21.838Z,91.30
2019-04-16T20:37:54.179Z,91.30
2019-04-16T20:40:27.295Z,91.30
2019-04-16T20:42:59.683Z,91.30
2019-04-16T20:45:32.533Z,91.30
2019-04-16T20:48:04.904Z,91.30
2019-04-16T20:50:37.592Z,91.40
2019-04-16T20:53:09.859Z,91.30
2019-04-16T20:55:47.076Z,91.20
2019-04-16T20:58:18.858Z,91.20
2019-04-16T21:00:52.604Z,91.30
2019-04-16T21:03:24.823Z,91.30
2019-04-16T21:05:59.678Z,91.20
2019-04-16T21:08:31.403Z,91.40
2019-04-16T21:11:07.361Z,91.40
2019-04-16T21:13:37.188Z,91.50
2019-04-16T21:16:10.015Z,91.40
2019-04-16T21:18:42.232Z,91.50
2019-04-16T21:21:15.293Z,91.50
2019-04-16T21:23:47.392Z,91.60
2019-04-16T21:26:20.275Z,91.60
2019-04-16T21:29:02.110Z,91.50
2019-04-16T21:31:43.921Z,91.60
2019-04-16T21:34:24.262Z,91.50
2019-04-16T21:37:09.293Z,91.60
2019-04-16T21:39:42.843Z,91.60
2019-04-16T21:42:15.706Z,91.60
2019-04-16T21:44:47.977Z,91.50
2019-04-16T21:47:23.626Z,91.20
2019-04-16T21:49:54.749Z,91.60
2019-04-16T21:52:27.234Z,91.60
2019-04-16T21:55:03.014Z,91.70
2019-04-16T21:57:34.179Z,91.70
2019-04-16T22:00:12.031Z,91.70
2019-04-16T22:02:47.223Z,91.80
2019-04-16T22:05:19.924Z,91.80
2019-04-16T22:07:53.640Z,91.80
2019-04-16T22:10:25.790Z,91.80
2019-04-16T22:12:58.184Z,91.80
2019-04-16T22:15:30.729Z,91.80
2019-04-16T22:18:07.582Z,91.80
2019-04-16T22:20:36.874Z,91.80
2019-04-16T22:23:09.489Z,91.80
2019-04-16T22:25:42.255Z,91.80
2019-04-16T22:28:15.374Z,91.80
2019-04-16T22:30:51.202Z,91.50
2019-04-16T22:33:22.653Z,91.70
2019-04-16T22:35:55.081Z,91.70
2019-04-16T22:38:29.314Z,91.30
2019-04-16T22:41:03.343Z,90.80
2019-04-16T22:43:53.533Z,90.60
2019-04-16T22:46:30.288Z,90.60
2019-04-16T22:49:03.148Z,90.50
2019-04-16T22:51:35.513Z,90.40
2019-04-16T22:54:07.895Z,90.50
2019-04-16T22:57:01.982Z,90.80
2019-04-16T22:59:31.756Z,91.50
2019-04-16T23:02:05.418Z,91.30
2019-04-16T23:04:38.017Z,90.90
2019-04-16T23:07:11.992Z,90.90
2019-04-16T23:09:45.728Z,91.60
2019-04-16T23:12:20.874Z,91.80
2019-04-16T23:14:53.439Z,91.80
2019-04-16T23:17:27.080Z,91.80
2019-04-16T23:19:59.618Z,90.70
2019-04-16T23:22:33.316Z,90.70
2019-04-16T23:25:04.766Z,90.70
2019-04-16T23:27:37.582Z,91.30
2019-04-16T23:30:10.862Z,90.80
2019-04-16T23:32:43.579Z,90.70
2019-04-16T23:35:16.901Z,90.40
2019-04-16T23:37:48.196Z,90.40
2019-04-16T23:40:20.719Z,91.00
2019-04-16T23:42:55.901Z,90.80
2019-04-16T23:45:38.902Z,91.30
2019-04-16T23:48:29.116Z,91.30
2019-04-16T23:51:04.408Z,91.50
2019-04-16T23:53:39.052Z,90.50
2019-04-16T23:56:23.457Z,90.50
2019-04-16T23:59:06.565Z,90.50
